Portada
METAR-TAF:

METAR-TAF

Aeroports :

Moscou, Rússia

latitud: 55-30-42N, longitud: 037-30-26E, altitud: 173 m

Observació

L'informe es va fer fa 20 minuts, a les 01:30 UTC
Vent calma
Temperatura 7°C
Humitat 100%
Pressió 1023 hPa
Visibilitat: 6000 m

METAR: UUMO 280130Z 00000MPS 6000 NSC 07/07 Q1023 R26/090060 NOSIG RMK QFE752/1003

Hora: 04:50 (01:50 UTC)

Pronòstic

L'informe es va fer fa 3 hores i 3 minuts, a les 22:47 UTC
Pronòstic vàlid del 28 a les 00 UTC al 28 a les 09 UTC
Vent 2 kt amb direcció variable
Visibilitat 10 km o més
sense núvols per sota de 1500 mi sense presència de cumulonimbus.

TAF: UUMO 272247Z 2800/2809 VRB01MPS CAVOK

Observacions i pronòstics meteorològics de més de 4000 aeroports (METAR i TAF).

Les estacions disponibles són els punts grocs i vermells al mapa.

Posi el ratolí al punt desitjat per veure el nom de l'estació.

Feu clic per veure les observacions i els pronòstics meteorològics.

Per canviar el mapa: feu clic els botons verds amb una creu de color negre per apropar; al botó verd amb un guió per allunyar la imatge; o en les fletxes verdes per a mapes adjacents.


METAR-TAF: